Time;durP1;ratioP1;P1;durP2;ratioP2;P2;SDS_P1;SDS_P2;PMS_P1;PMS_P2;Temp;Humidity;BMP_temperature;BMP_pressure;BME280_temperature;BME280_humidity;BME280_pressure;Samples;Min_cycle;Max_cycle;Signal;HPM_P1;HPM_P2
2022/06/10 00:00:14;;;;;;;18.13;16.83;;;11.60;99.90;;;;;;5035181;28;20191;-77
2022/06/10 00:02:43;;;;;;;18.30;17.47;;;11.60;99.90;;;;;;5034829;28;20199;-77
2022/06/10 00:05:14;;;;;;;51.60;48.70;;;11.60;99.90;;;;;;5034952;28;20178;-77
2022/06/10 00:07:41;;;;;;;50.77;48.23;;;11.50;99.90;;;;;;5033449;28;20229;-77
2022/06/10 00:10:08;;;;;;;34.50;32.73;;;11.50;99.90;;;;;;5035019;28;20183;-77
2022/06/10 00:12:34;;;;;;;58.90;55.63;;;11.50;99.90;;;;;;5034918;28;20199;-77
2022/06/10 00:15:00;;;;;;;58.70;55.63;;;11.40;99.90;;;;;;5033791;28;20187;-77
2022/06/10 00:17:25;;;;;;;46.33;44.03;;;11.50;99.90;;;;;;5032853;28;20213;-77
2022/06/10 00:19:51;;;;;;;51.93;49.37;;;11.40;99.90;;;;;;5034016;28;20595;-78
2022/06/10 00:22:18;;;;;;;41.80;39.70;;;11.40;99.90;;;;;;5035712;28;20219;-78
2022/06/10 00:24:44;;;;;;;31.70;29.93;;;11.30;99.90;;;;;;5035635;28;20191;-77
2022/06/10 00:27:10;;;;;;;28.60;26.70;;;11.30;99.90;;;;;;5034002;28;20277;-77
2022/06/10 00:29:36;;;;;;;20.50;19.27;;;11.20;99.90;;;;;;5035482;28;20808;-78
2022/06/10 00:32:02;;;;;;;17.27;16.27;;;11.20;99.90;;;;;;5038972;28;20666;-76
2022/06/10 00:34:28;;;;;;;24.70;23.17;;;11.20;99.90;;;;;;5041372;28;20274;-76
2022/06/10 00:36:54;;;;;;;42.80;40.40;;;11.20;99.90;;;;;;5043008;28;20175;-77
2022/06/10 00:39:20;;;;;;;34.60;32.50;;;11.20;99.90;;;;;;5036697;28;20204;-76
2022/06/10 00:41:45;;;;;;;22.13;20.83;;;11.20;99.90;;;;;;5034474;28;20286;-77
2022/06/10 00:44:33;;;;;;;30.43;28.67;;;11.10;99.90;;;;;;5034459;28;20187;-77
2022/06/10 00:47:01;;;;;;;24.53;23.23;;;11.00;99.90;;;;;;5033692;28;20214;-78
2022/06/10 00:49:31;;;;;;;23.07;21.87;;;11.00;99.90;;;;;;5034411;28;20229;-77
2022/06/10 00:51:57;;;;;;;16.13;15.33;;;11.10;99.90;;;;;;5034471;28;20198;-77
2022/06/10 00:54:37;;;;;;;13.00;12.37;;;11.00;99.90;;;;;;5035251;28;20714;-77
2022/06/10 00:57:13;;;;;;;12.37;11.60;;;11.00;99.90;;;;;;5033141;28;20293;-76
2022/06/10 00:59:51;;;;;;;14.87;14.13;;;11.00;99.90;;;;;;5033141;28;20178;-78
2022/06/10 01:02:23;;;;;;;20.10;19.00;;;11.00;99.90;;;;;;5034793;28;20202;-77
2022/06/10 01:04:49;;;;;;;20.43;19.10;;;10.90;99.90;;;;;;5033945;28;20179;-78
2022/06/10 01:07:20;;;;;;;18.43;17.43;;;10.90;99.90;;;;;;5032320;28;20179;-78
2022/06/10 01:09:48;;;;;;;19.57;18.50;;;10.90;99.90;;;;;;5033089;28;20214;-77
2022/06/10 01:12:44;;;;;;;21.13;20.07;;;10.80;99.90;;;;;;5033296;28;20213;-77
2022/06/10 01:15:37;;;;;;;18.83;17.47;;;10.70;99.90;;;;;;5034068;28;20182;-76
2022/06/10 01:18:40;;;;;;;18.40;17.30;;;10.60;99.90;;;;;;5029640;28;20214;-78
2022/06/10 01:21:05;;;;;;;13.00;12.40;;;10.60;99.90;;;;;;5023607;28;20253;-76
2022/06/10 01:23:43;;;;;;;9.03;8.00;;;10.60;99.90;;;;;;5048082;28;20186;-76
2022/06/10 01:26:12;;;;;;;9.03;8.43;;;10.60;99.90;;;;;;5048304;28;20237;-77
2022/06/10 01:29:08;;;;;;;7.00;6.50;;;10.60;99.90;;;;;;5047000;28;20184;-76
2022/06/10 01:31:53;;;;;;;10.27;7.20;;;10.60;99.90;;;;;;5039358;28;20210;-77
2022/06/10 01:34:29;;;;;;;7.87;7.20;;;10.60;99.90;;;;;;5033961;28;20187;-77
2022/06/10 01:37:08;;;;;;;9.77;9.07;;;10.60;99.90;;;;;;5034164;28;20229;-78
2022/06/10 01:40:24;;;;;;;9.70;8.97;;;10.50;99.90;;;;;;5033587;28;20183;-78
2022/06/10 01:42:59;;;;;;;11.67;11.07;;;10.50;99.90;;;;;;5029004;28;20608;-77
2022/06/10 01:45:43;;;;;;;30.13;27.67;;;10.40;99.90;;;;;;5031926;28;20186;-77
2022/06/10 01:48:19;;;;;;;8.10;7.47;;;10.50;99.90;;;;;;5032364;28;20183;-77
2022/06/10 01:51:11;;;;;;;8.90;8.30;;;10.50;99.90;;;;;;5031970;28;20576;-77
2022/06/10 01:53:40;;;;;;;10.80;10.03;;;10.30;99.90;;;;;;5035515;28;20201;-77
2022/06/10 01:56:47;;;;;;;10.73;9.90;;;10.30;99.90;;;;;;5031745;28;20183;-77
2022/06/10 01:59:22;;;;;;;8.87;8.47;;;10.20;99.90;;;;;;4974996;28;20183;-77
2022/06/10 02:01:57;;;;;;;10.57;7.00;;;10.20;99.90;;;;;;4974939;28;20287;-77
2022/06/10 02:04:30;;;;;;;9.97;9.17;;;10.20;99.90;;;;;;5008576;28;20559;-77
2022/06/10 02:07:08;;;;;;;8.77;8.07;;;10.20;99.90;;;;;;5033160;28;20206;-77
2022/06/10 02:09:42;;;;;;;13.20;12.47;;;10.10;99.90;;;;;;5033241;28;20218;-77
2022/06/10 02:12:18;;;;;;;20.77;19.57;;;10.10;99.90;;;;;;5032795;28;20552;-77
2022/06/10 02:14:58;;;;;;;26.33;25.00;;;10.10;99.90;;;;;;5034840;28;20269;-78
2022/06/10 02:17:27;;;;;;;24.47;22.77;;;10.10;99.90;;;;;;5045635;28;20206;-77
2022/06/10 02:19:58;;;;;;;27.43;25.80;;;10.10;99.90;;;;;;5039197;28;20187;-77
2022/06/10 02:22:35;;;;;;;36.83;34.93;;;10.10;99.90;;;;;;5033044;28;20218;-77
2022/06/10 02:25:12;;;;;;;11.70;10.97;;;10.10;99.90;;;;;;5030694;28;20183;-78
2022/06/10 02:27:43;;;;;;;7.13;6.57;;;10.10;99.90;;;;;;5030087;28;20182;-77
2022/06/10 02:30:14;;;;;;;10.77;9.97;;;10.10;99.90;;;;;;5030812;28;20210;-77
2022/06/10 02:32:41;;;;;;;8.97;8.07;;;10.10;99.90;;;;;;5031140;28;20203;-77
2022/06/10 02:35:09;;;;;;;13.60;12.97;;;10.00;99.90;;;;;;5030662;28;20175;-77
2022/06/10 02:38:14;;;;;;;8.50;7.87;;;10.00;99.90;;;;;;5029974;28;20210;-77
2022/06/10 02:40:48;;;;;;;27.07;25.30;;;10.00;99.90;;;;;;5033877;28;20615;-78
2022/06/10 02:43:56;;;;;;;23.93;22.83;;;10.00;99.90;;;;;;5030617;28;20269;-76
2022/06/10 02:46:44;;;;;;;11.43;10.83;;;10.10;99.90;;;;;;4974339;28;20541;-78
2022/06/10 02:49:16;;;;;;;7.43;6.67;;;10.10;99.90;;;;;;5029708;28;20179;-76
2022/06/10 02:51:43;;;;;;;12.70;11.30;;;10.00;99.90;;;;;;5034620;28;20215;-76
2022/06/10 02:54:31;;;;;;;9.30;8.70;;;9.90;99.90;;;;;;5031360;28;20579;-76
2022/06/10 02:56:58;;;;;;;12.63;11.93;;;9.90;99.90;;;;;;5044369;28;20183;-76
2022/06/10 03:02:15;;;;;;;14.90;13.90;;;9.90;99.90;;;;;;5036813;28;20925;-78
2022/06/10 03:05:08;;;;;;;11.53;10.70;;;9.90;99.90;;;;;;5031746;28;20647;-77
2022/06/10 03:07:57;;;;;;;22.00;20.67;;;9.80;99.90;;;;;;5031643;28;20187;-77
2022/06/10 03:11:01;;;;;;;23.43;22.03;;;9.80;99.90;;;;;;5031009;28;20222;-75
2022/06/10 03:13:53;;;;;;;20.47;19.00;;;9.90;99.90;;;;;;5028521;28;20187;-76
2022/06/10 03:16:53;;;;;;;17.50;16.53;;;9.90;99.90;;;;;;5019600;28;20191;-77
2022/06/10 03:19:48;;;;;;;7.43;6.93;;;9.90;99.90;;;;;;5035066;28;20186;-77
2022/06/10 03:22:39;;;;;;;9.70;8.93;;;9.80;99.90;;;;;;5034602;28;20219;-77
2022/06/10 03:25:10;;;;;;;11.93;11.10;;;9.70;99.90;;;;;;5034464;28;20613;-77
2022/06/10 03:27:43;;;;;;;24.33;23.03;;;9.80;99.90;;;;;;5036154;28;20187;-78
2022/06/10 03:30:17;;;;;;;15.90;14.83;;;9.80;99.90;;;;;;5045413;28;20194;-79
2022/06/10 03:32:52;;;;;;;6.40;5.90;;;9.80;99.90;;;;;;5036776;28;20207;-78
2022/06/10 03:35:29;;;;;;;8.13;7.33;;;9.80;99.90;;;;;;5034745;28;20719;-78
2022/06/10 03:37:56;;;;;;;8.03;7.47;;;9.70;99.90;;;;;;5034685;28;20220;-78
2022/06/10 03:40:26;;;;;;;12.60;11.80;;;9.70;99.90;;;;;;5035406;28;20310;-78
2022/06/10 03:42:56;;;;;;;12.77;12.17;;;9.70;99.90;;;;;;5036109;28;20278;-78
2022/06/10 03:45:25;;;;;;;16.33;15.43;;;9.80;99.90;;;;;;5035478;28;20183;-77
2022/06/10 03:47:51;;;;;;;9.03;8.13;;;9.80;99.90;;;;;;5049093;28;20242;-77
2022/06/10 03:50:29;;;;;;;20.30;18.87;;;9.80;99.90;;;;;;5046884;28;20245;-78
2022/06/10 03:52:54;;;;;;;28.33;26.80;;;9.70;99.90;;;;;;5044578;28;20186;-77
2022/06/10 03:55:20;;;;;;;24.30;22.87;;;9.70;99.90;;;;;;5044099;28;20186;-78
2022/06/10 03:57:47;;;;;;;22.77;21.33;;;9.70;99.90;;;;;;5036082;28;20363;-78
2022/06/10 04:00:19;;;;;;;9.73;9.23;;;9.80;99.90;;;;;;5047130;28;20179;-77
2022/06/10 04:02:46;;;;;;;10.77;9.97;;;9.80;99.90;;;;;;5033766;28;20179;-77
2022/06/10 04:05:12;;;;;;;9.43;8.53;;;9.90;99.90;;;;;;5033538;28;20186;-77
2022/06/10 04:07:39;;;;;;;7.63;7.23;;;10.00;99.90;;;;;;5033038;28;20194;-77
2022/06/10 04:10:07;;;;;;;9.83;8.93;;;10.10;99.90;;;;;;5034693;28;20183;-77
2022/06/10 04:12:33;;;;;;;13.17;12.43;;;10.10;99.90;;;;;;5033876;28;20206;-78
2022/06/10 04:14:59;;;;;;;15.03;13.87;;;10.20;99.90;;;;;;5033934;28;20549;-78
2022/06/10 04:17:24;;;;;;;39.80;37.27;;;10.20;99.90;;;;;;5034716;28;20704;-78
2022/06/10 04:19:51;;;;;;;35.60;33.70;;;10.20;99.90;;;;;;5041298;28;20225;-77
2022/06/10 04:22:17;;;;;;;41.70;39.60;;;10.30;99.90;;;;;;5042264;23;20227;-76
2022/06/10 04:24:43;;;;;;;28.40;27.03;;;10.30;99.90;;;;;;5006410;28;20187;-75
2022/06/10 04:27:08;;;;;;;28.90;27.33;;;10.50;99.90;;;;;;5010368;28;20192;-74
2022/06/10 04:29:34;;;;;;;38.37;36.47;;;10.60;99.90;;;;;;5009371;28;20656;-74
2022/06/10 04:32:00;;;;;;;29.43;27.87;;;10.70;99.90;;;;;;5012753;28;20239;-75
2022/06/10 04:34:26;;;;;;;26.37;24.90;;;10.80;99.90;;;;;;5005893;28;20232;-76
2022/06/10 04:36:52;;;;;;;29.13;27.47;;;10.90;99.90;;;;;;5012524;28;20184;-75
2022/06/10 04:39:17;;;;;;;32.60;30.60;;;11.00;99.90;;;;;;5011524;28;20726;-76
2022/06/10 04:41:43;;;;;;;12.43;11.53;;;11.10;99.90;;;;;;5012104;28;20195;-76
2022/06/10 04:44:09;;;;;;;9.10;8.30;;;11.10;99.90;;;;;;5013195;28;20552;-75
2022/06/10 04:46:40;;;;;;;9.13;8.57;;;11.10;99.90;;;;;;5013575;28;20182;-76
2022/06/10 04:49:06;;;;;;;6.87;6.33;;;11.30;99.90;;;;;;5012740;28;20198;-76
2022/06/10 04:51:33;;;;;;;6.53;6.00;;;11.50;99.90;;;;;;5012028;28;20200;-76
2022/06/10 04:54:00;;;;;;;6.97;6.47;;;11.70;99.90;;;;;;5013143;28;20195;-77
2022/06/10 04:56:25;;;;;;;11.87;11.17;;;12.00;99.90;;;;;;5013236;28;20212;-77
2022/06/10 04:58:51;;;;;;;27.60;26.07;;;12.10;99.90;;;;;;5010982;28;20214;-76
2022/06/10 05:01:17;;;;;;;25.43;23.70;;;12.30;99.90;;;;;;5011979;28;20191;-76
2022/06/10 05:03:43;;;;;;;7.90;7.10;;;12.60;99.90;;;;;;5012964;28;20190;-76
2022/06/10 05:06:10;;;;;;;26.70;25.23;;;12.80;99.90;;;;;;5012914;28;20217;-77
2022/06/10 05:08:36;;;;;;;11.63;10.73;;;13.10;99.90;;;;;;5010989;28;20663;-76
2022/06/10 05:11:02;;;;;;;15.67;14.70;;;13.80;99.90;;;;;;5012997;28;20215;-76
2022/06/10 05:13:27;;;;;;;10.20;9.50;;;14.40;99.90;;;;;;5012668;28;20187;-76
2022/06/10 05:15:53;;;;;;;11.20;10.50;;;15.10;99.90;;;;;;5013639;28;20718;-76
2022/06/10 05:18:23;;;;;;;15.83;14.90;;;15.70;99.90;;;;;;5010832;28;20298;-76
2022/06/10 05:20:50;;;;;;;24.00;22.83;;;16.30;99.90;;;;;;5012618;28;20282;-76
2022/06/10 05:23:18;;;;;;;13.63;12.93;;;16.90;99.90;;;;;;5011598;28;20190;-76
2022/06/10 05:25:44;;;;;;;7.37;6.87;;;17.30;99.90;;;;;;5012797;28;20186;-76
2022/06/10 05:28:12;;;;;;;7.07;6.67;;;17.60;99.90;;;;;;5011930;28;20195;-77
2022/06/10 05:30:39;;;;;;;8.20;7.80;;;18.00;99.90;;;;;;5012246;28;20566;-78
2022/06/10 05:33:06;;;;;;;9.63;9.10;;;18.30;99.90;;;;;;5013918;28;20187;-77
2022/06/10 05:35:33;;;;;;;8.20;7.60;;;18.50;99.90;;;;;;5012503;28;20192;-76
2022/06/10 05:38:00;;;;;;;17.57;16.47;;;18.50;99.90;;;;;;5011303;28;20211;-75
2022/06/10 05:40:27;;;;;;;26.63;25.30;;;18.50;99.90;;;;;;5012154;28;20230;-77
2022/06/10 05:42:53;;;;;;;19.07;18.03;;;18.60;99.90;;;;;;5012597;28;20180;-76
2022/06/10 05:45:21;;;;;;;20.37;19.30;;;18.70;99.90;;;;;;5011415;28;20243;-76
2022/06/10 05:47:50;;;;;;;16.13;15.23;;;19.00;99.90;;;;;;5010135;28;20219;-76
2022/06/10 05:50:23;;;;;;;22.70;21.33;;;19.00;99.90;;;;;;5010966;28;20179;-76
2022/06/10 05:52:49;;;;;;;16.03;15.10;;;18.90;99.90;;;;;;5012349;28;20192;-76
2022/06/10 05:55:17;;;;;;;17.30;16.30;;;19.00;99.90;;;;;;5011009;28;20229;-77
2022/06/10 05:57:43;;;;;;;11.73;10.83;;;19.40;99.90;;;;;;5009917;28;20280;-76
2022/06/10 06:00:27;;;;;;;11.80;10.98;;;19.70;99.90;;;;;;5012368;28;20648;-77
2022/06/10 06:02:54;;;;;;;31.80;30.20;;;19.80;99.90;;;;;;5011662;28;20244;-77
2022/06/10 06:05:21;;;;;;;35.63;33.77;;;20.20;99.90;;;;;;5012770;28;20227;-77
2022/06/10 06:07:48;;;;;;;41.00;38.65;;;20.20;99.90;;;;;;5012744;28;20636;-76
2022/06/10 06:10:18;;;;;;;25.20;23.77;;;20.30;99.90;;;;;;5011998;28;20214;-77
2022/06/10 06:12:44;;;;;;;27.10;25.73;;;20.40;99.90;;;;;;5012598;28;20230;-76
2022/06/10 06:15:12;;;;;;;13.98;13.15;;;20.50;99.90;;;;;;5012456;28;20262;-77
2022/06/10 06:17:40;;;;;;;14.38;13.38;;;20.50;99.90;;;;;;5009784;28;20212;-77
2022/06/10 06:20:08;;;;;;;4.80;4.50;;;20.40;99.90;;;;;;5011127;28;20203;-77
2022/06/10 06:22:34;;;;;;;5.75;5.18;;;21.00;99.90;;;;;;5011695;28;20238;-76
2022/06/10 06:25:00;;;;;;;6.03;5.40;;;21.30;99.90;;;;;;5011905;28;20190;-77
2022/06/10 06:27:27;;;;;;;6.60;5.95;;;21.80;99.90;;;;;;5009349;28;20187;-77
2022/06/10 06:29:53;;;;;;;9.73;8.65;;;22.20;99.90;;;;;;5010872;28;20626;-77
2022/06/10 06:32:18;;;;;;;10.05;9.35;;;22.40;99.90;;;;;;5009977;28;20750;-77
2022/06/10 06:34:44;;;;;;;9.25;8.65;;;22.50;99.90;;;;;;5011305;28;20187;-77
2022/06/10 06:37:14;;;;;;;9.40;8.95;;;22.40;99.90;;;;;;5010266;28;20234;-76
2022/06/10 06:39:40;;;;;;;10.98;10.25;;;22.10;99.90;;;;;;5012242;28;20183;-77
2022/06/10 06:42:06;;;;;;;12.40;11.57;;;22.10;99.90;;;;;;5010593;28;20200;-77
2022/06/10 06:44:32;;;;;;;11.15;10.30;;;22.00;99.90;;;;;;5011458;28;20267;-77
2022/06/10 06:46:58;;;;;;;13.85;12.90;;;22.10;99.90;;;;;;5010993;28;20219;-77
2022/06/10 06:49:27;;;;;;;8.30;7.80;;;22.50;99.90;;;;;;5011762;28;20179;-77
2022/06/10 06:51:54;;;;;;;4.43;4.07;;;23.00;99.90;;;;;;5009286;28;20200;-77
2022/06/10 06:54:20;;;;;;;4.18;3.85;;;23.30;99.90;;;;;;5009487;28;20534;-75
2022/06/10 06:56:47;;;;;;;4.47;4.13;;;23.40;99.90;;;;;;5010092;28;20180;-76
2022/06/10 06:59:13;;;;;;;4.95;4.00;;;23.60;99.90;;;;;;5009071;28;20298;-75
2022/06/10 07:01:39;;;;;;;4.53;4.13;;;23.90;99.90;;;;;;5010829;28;20323;-76
2022/06/10 07:04:06;;;;;;;4.00;3.80;;;24.10;99.70;;;;;;5011144;28;20171;-76
2022/06/10 07:06:36;;;;;;;3.75;3.35;;;24.40;99.90;;;;;;5011026;28;20607;-76
2022/06/10 07:09:03;;;;;;;6.43;4.68;;;24.50;96.80;;;;;;5010149;28;20206;-76
2022/06/10 07:11:31;;;;;;;5.43;3.78;;;24.00;96.90;;;;;;5010764;28;20579;-76
2022/06/10 07:13:57;;;;;;;4.25;3.88;;;23.50;97.60;;;;;;5010633;28;20179;-76
2022/06/10 07:16:23;;;;;;;5.10;4.60;;;23.80;97.40;;;;;;5010790;28;20183;-77
2022/06/10 07:18:51;;;;;;;4.65;4.00;;;24.10;97.20;;;;;;5009868;28;20211;-76
2022/06/10 07:21:17;;;;;;;4.32;4.03;;;24.40;96.60;;;;;;5010607;28;20211;-76
2022/06/10 07:23:43;;;;;;;7.30;3.85;;;24.50;96.20;;;;;;5010620;28;20554;-76
2022/06/10 07:26:09;;;;;;;4.78;4.35;;;24.60;95.70;;;;;;5010307;28;20172;-77
2022/06/10 07:28:36;;;;;;;6.18;4.32;;;24.70;96.10;;;;;;5009861;28;20192;-76
2022/06/10 07:31:02;;;;;;;4.45;4.05;;;25.00;96.50;;;;;;5010560;28;20246;-77
2022/06/10 07:33:28;;;;;;;5.75;5.10;;;25.30;95.50;;;;;;5009185;28;20183;-76
2022/06/10 07:35:55;;;;;;;7.00;5.90;;;25.50;95.70;;;;;;5009493;28;20195;-76
2022/06/10 07:38:21;;;;;;;7.25;5.63;;;25.70;95.00;;;;;;5010144;28;20203;-76
2022/06/10 07:43:32;;;;;;;5.40;4.93;;;25.80;94.50;;;;;;5010985;28;20610;-75
2022/06/10 07:46:00;;;;;;;5.03;4.68;;;25.60;94.20;;;;;;5011676;28;20271;-77
2022/06/10 07:48:26;;;;;;;5.53;4.25;;;25.60;94.30;;;;;;5009516;28;20183;-76
2022/06/10 07:50:52;;;;;;;5.25;4.85;;;25.60;93.80;;;;;;5010774;28;20870;-76
2022/06/10 07:53:18;;;;;;;5.40;4.22;;;25.30;93.50;;;;;;5012316;28;20295;-75
2022/06/10 07:55:45;;;;;;;4.88;4.45;;;25.20;92.40;;;;;;5011202;28;20176;-75
2022/06/10 07:58:14;;;;;;;4.50;4.15;;;25.20;93.00;;;;;;5009197;28;20215;-77
2022/06/10 08:00:40;;;;;;;5.95;4.15;;;25.30;93.50;;;;;;5010146;28;20271;-75
2022/06/10 08:03:06;;;;;;;6.82;4.90;;;25.40;92.00;;;;;;5016639;28;20187;-77
2022/06/10 08:05:32;;;;;;;7.00;4.95;;;25.40;93.20;;;;;;5024876;28;20176;-77
2022/06/10 08:08:01;;;;;;;5.53;5.13;;;25.70;92.30;;;;;;5021802;28;20553;-78
2022/06/10 08:10:32;;;;;;;5.10;4.72;;;25.80;92.20;;;;;;5013699;28;20186;-77
2022/06/10 08:12:58;;;;;;;6.57;4.22;;;25.40;91.90;;;;;;5013904;28;20224;-79
2022/06/10 08:15:24;;;;;;;10.18;9.52;;;24.90;91.70;;;;;;5014981;28;20648;-77
2022/06/10 08:17:51;;;;;;;8.20;7.63;;;24.90;92.80;;;;;;5015294;28;20204;-78
2022/06/10 08:20:21;;;;;;;6.88;6.28;;;25.00;92.40;;;;;;5015629;28;20183;-76
2022/06/10 08:22:47;;;;;;;8.18;7.45;;;25.20;92.80;;;;;;5013253;28;20242;-76
2022/06/10 08:25:14;;;;;;;4.65;4.20;;;25.50;91.60;;;;;;5012556;28;20171;-76
2022/06/10 08:27:40;;;;;;;5.25;4.85;;;25.60;90.40;;;;;;4993508;28;20192;-74
2022/06/10 08:30:11;;;;;;;5.03;4.32;;;25.60;91.10;;;;;;4992896;28;20180;-77
2022/06/10 08:32:37;;;;;;;6.47;4.68;;;25.70;90.90;;;;;;4994124;28;20696;-77
2022/06/10 08:35:04;;;;;;;8.82;8.23;;;26.30;91.80;;;;;;4993705;28;20203;-77
2022/06/10 08:37:30;;;;;;;9.48;8.57;;;26.90;89.40;;;;;;5011751;28;20207;-77
2022/06/10 08:39:56;;;;;;;10.68;9.68;;;26.90;89.80;;;;;;5014738;28;20223;-77
2022/06/10 08:42:36;;;;;;;8.45;7.75;;;26.60;90.10;;;;;;5016882;28;20235;-77
2022/06/10 08:45:30;;;;;;;14.73;13.73;;;26.70;90.10;;;;;;5014878;28;20183;-77
2022/06/10 08:48:14;;;;;;;11.02;10.13;;;26.80;85.00;;;;;;4992296;28;20609;-77
2022/06/10 08:50:58;;;;;;;10.23;9.57;;;26.80;85.80;;;;;;4993008;28;20188;-77
2022/06/10 08:54:00;;;;;;;9.65;8.82;;;27.00;87.10;;;;;;4994701;28;20714;-78
2022/06/10 08:56:42;;;;;;;11.48;10.75;;;27.10;83.70;;;;;;5004020;28;20190;-77
2022/06/10 08:59:20;;;;;;;6.82;6.32;;;26.90;84.80;;;;;;5013831;28;20306;-77
2022/06/10 09:02:21;;;;;;;9.57;8.77;;;27.10;84.90;;;;;;5013322;28;20235;-76
2022/06/10 09:05:11;;;;;;;7.30;6.40;;;26.80;85.30;;;;;;5004374;28;20186;-77
2022/06/10 09:07:42;;;;;;;5.93;4.97;;;26.90;86.20;;;;;;5012014;28;20203;-78
2022/06/10 09:10:28;;;;;;;6.55;4.47;;;27.10;85.80;;;;;;5011705;28;20183;-77
2022/06/10 09:13:00;;;;;;;7.00;6.38;;;27.30;85.20;;;;;;5012952;28;20726;-76
2022/06/10 09:15:29;;;;;;;7.63;5.47;;;27.70;82.80;;;;;;5010777;28;20191;-76
2022/06/10 09:18:07;;;;;;;6.18;5.57;;;27.80;81.90;;;;;;5011971;28;20676;-76
2022/06/10 09:21:02;;;;;;;5.13;4.72;;;28.00;80.40;;;;;;5012754;28;20186;-77
2022/06/10 09:23:41;;;;;;;13.45;12.48;;;28.40;80.30;;;;;;5012648;28;20226;-76
2022/06/10 09:26:13;;;;;;;5.13;4.72;;;28.80;75.20;;;;;;5011022;28;20175;-76
2022/06/10 09:28:39;;;;;;;9.95;8.68;;;28.80;79.50;;;;;;5011762;28;20734;-76
2022/06/10 09:31:20;;;;;;;13.82;12.70;;;29.10;76.90;;;;;;5012465;28;20204;-77
2022/06/10 09:33:54;;;;;;;16.45;15.35;;;29.20;76.90;;;;;;5012659;28;20187;-76
2022/06/10 09:36:42;;;;;;;12.70;11.95;;;29.00;73.50;;;;;;5012143;28;20187;-77
2022/06/10 09:42:38;;;;;;;14.38;13.50;;;28.60;73.30;;;;;;5011846;28;20306;-76
2022/06/10 09:45:16;;;;;;;10.85;10.10;;;29.30;67.00;;;;;;5011268;28;20725;-76
2022/06/10 09:48:02;;;;;;;8.65;8.05;;;29.40;66.70;;;;;;5011280;28;20555;-76
2022/06/10 09:50:49;;;;;;;9.88;9.27;;;28.50;68.40;;;;;;4980967;28;20245;-76
2022/06/10 09:53:52;;;;;;;10.88;10.18;;;28.60;66.10;;;;;;5012276;28;20184;-75
2022/06/10 09:56:49;;;;;;;8.90;8.07;;;28.80;64.30;;;;;;5011167;28;20225;-75
2022/06/10 09:59:18;;;;;;;10.32;9.70;;;28.80;64.20;;;;;;5011855;28;20294;-75
2022/06/10 10:01:53;;;;;;;10.02;9.43;;;29.30;67.30;;;;;;5011832;28;20199;-76
2022/06/10 10:04:37;;;;;;;13.18;12.43;;;30.20;66.60;;;;;;5011557;28;20190;-76
2022/06/10 10:07:03;;;;;;;14.27;13.40;;;30.10;65.00;;;;;;5009938;28;20188;-77
2022/06/10 10:10:00;;;;;;;10.30;9.52;;;29.30;66.30;;;;;;5011939;28;20183;-76
2022/06/10 10:12:49;;;;;;;10.32;9.57;;;29.10;65.80;;;;;;5011748;28;20203;-76
2022/06/10 10:15:26;;;;;;;10.27;9.68;;;29.20;66.30;;;;;;5012046;28;20234;-76
2022/06/10 10:18:23;;;;;;;10.82;10.20;;;28.60;67.40;;;;;;5009635;28;20215;-77
2022/06/10 10:23:28;;;;;;;8.25;7.63;;;29.40;63.50;;;;;;5032279;23;20240;-79
2022/06/10 10:25:54;;;;;;;11.57;10.57;;;29.30;62.20;;;;;;5019219;28;20195;-78
2022/06/10 10:28:21;;;;;;;7.75;7.03;;;29.40;66.40;;;;;;5018079;28;20180;-80
2022/06/10 10:31:17;;;;;;;7.82;7.18;;;30.00;63.30;;;;;;5016035;28;20188;-79
2022/06/10 10:33:44;;;;;;;6.88;3.67;;;30.20;60.60;;;;;;4996587;28;20184;-78
2022/06/10 10:36:21;;;;;;;4.10;3.78;;;30.30;56.30;;;;;;4999385;28;20194;-78
2022/06/10 10:38:48;;;;;;;3.90;3.60;;;30.40;56.10;;;;;;4997678;28;20219;-77
2022/06/10 10:41:42;;;;;;;4.82;4.53;;;30.30;57.10;;;;;;4992384;28;20192;-79
2022/06/10 10:44:26;;;;;;;4.78;4.25;;;31.10;59.00;;;;;;4993113;28;20188;-79
2022/06/10 10:47:18;;;;;;;4.38;4.07;;;30.90;59.00;;;;;;4999197;28;20211;-76
2022/06/10 10:49:51;;;;;;;15.52;14.15;;;30.80;57.90;;;;;;5005487;28;20837;-76
2022/06/10 10:52:28;;;;;;;24.20;22.77;;;31.20;56.10;;;;;;4995843;28;20195;-78
2022/06/10 10:55:18;;;;;;;51.75;49.20;;;31.40;55.50;;;;;;4997802;28;20263;-76
2022/06/10 10:58:06;;;;;;;67.72;64.30;;;31.20;55.30;;;;;;4994103;28;20208;-77
2022/06/10 11:00:44;;;;;;;77.63;73.85;;;31.20;54.50;;;;;;4997758;28;20187;-77
2022/06/10 11:03:30;;;;;;;79.05;75.13;;;31.80;52.60;;;;;;5002095;28;20271;-81
2022/06/10 11:05:59;;;;;;;72.88;69.25;;;31.80;51.20;;;;;;4994932;28;20192;-77
2022/06/10 11:08:30;;;;;;;57.53;54.45;;;31.80;51.70;;;;;;4993226;28;20188;-78
2022/06/10 11:11:05;;;;;;;63.10;59.90;;;31.90;52.00;;;;;;4995444;28;20242;-79
2022/06/10 11:13:41;;;;;;;65.45;62.05;;;32.60;53.30;;;;;;4993632;28;20183;-79
2022/06/10 11:16:26;;;;;;;66.22;62.78;;;32.70;53.20;;;;;;4993287;28;20234;-77
2022/06/10 11:19:04;;;;;;;66.63;63.10;;;32.30;51.00;;;;;;4992792;28;20306;-79
2022/06/10 11:21:44;;;;;;;60.95;57.80;;;31.60;52.30;;;;;;4992287;28;20684;-77
2022/06/10 11:24:16;;;;;;;69.32;65.63;;;30.10;53.40;;;;;;4994998;28;20175;-79
2022/06/10 11:26:52;;;;;;;4.55;4.15;;;28.70;57.20;;;;;;4993003;28;20237;-78
2022/06/10 11:29:19;;;;;;;4.78;3.58;;;27.70;58.90;;;;;;4994672;28;20239;-76
2022/06/10 11:31:49;;;;;;;6.10;5.60;;;27.00;58.40;;;;;;4990083;28;20712;-78
2022/06/10 11:34:25;;;;;;;10.63;9.82;;;26.40;61.90;;;;;;4990750;28;20275;-78
2022/06/10 11:36:53;;;;;;;13.55;12.85;;;25.90;64.60;;;;;;4989459;28;20231;-77
2022/06/10 11:39:27;;;;;;;36.83;34.67;;;25.50;64.10;;;;;;4992294;28;20748;-77
2022/06/10 11:42:16;;;;;;;32.13;30.38;;;25.20;66.30;;;;;;4993959;28;20287;-77
2022/06/10 11:44:54;;;;;;;27.40;25.80;;;25.30;63.80;;;;;;4988671;28;20184;-77
2022/06/10 11:47:28;;;;;;;13.90;12.95;;;26.80;66.20;;;;;;4977356;28;20187;-77
2022/06/10 11:50:00;;;;;;;7.53;7.03;;;28.60;61.90;;;;;;4976979;28;20181;-77
2022/06/10 11:52:29;;;;;;;7.07;6.50;;;30.00;57.50;;;;;;4975222;28;20295;-78
2022/06/10 11:55:20;;;;;;;4.28;2.83;;;30.70;55.60;;;;;;4975608;28;20598;-78
2022/06/10 12:00:55;;;;;;;87.55;83.03;;;31.80;52.60;;;;;;4997393;28;20186;-78
2022/06/10 12:03:29;;;;;;;81.72;77.80;;;31.70;50.40;;;;;;4994568;28;20164;-77
2022/06/10 12:06:06;;;;;;;70.78;67.28;;;31.70;51.00;;;;;;4997814;28;20188;-78
2022/06/10 12:08:42;;;;;;;42.55;40.30;;;31.90;49.10;;;;;;4998171;28;20190;-78
2022/06/10 12:11:23;;;;;;;22.05;20.95;;;32.30;47.40;;;;;;4995816;28;20179;-78
2022/06/10 12:14:10;;;;;;;22.55;20.85;;;32.30;47.50;;;;;;4994010;28;20283;-77
2022/06/10 12:16:37;;;;;;;29.02;27.48;;;32.80;46.90;;;;;;4991233;28;20242;-77
2022/06/10 12:19:07;;;;;;;34.83;33.03;;;33.00;48.80;;;;;;4992098;28;20211;-77
2022/06/10 12:21:33;;;;;;;22.65;21.42;;;32.20;49.60;;;;;;4993736;28;20208;-78
2022/06/10 12:23:59;;;;;;;46.88;44.28;;;32.10;50.40;;;;;;4995497;28;20212;-77
2022/06/10 12:26:39;;;;;;;22.83;21.63;;;32.80;50.50;;;;;;5009977;28;20195;-77
2022/06/10 12:29:25;;;;;;;36.25;34.28;;;32.30;48.30;;;;;;5008830;28;20219;-76
2022/06/10 12:32:04;;;;;;;20.65;19.48;;;32.50;47.60;;;;;;4993563;28;20261;-77
2022/06/10 12:34:48;;;;;;;30.17;28.52;;;32.90;47.10;;;;;;4994588;28;20188;-77
2022/06/10 12:37:26;;;;;;;44.40;42.13;;;33.60;47.10;;;;;;4993029;28;20184;-78
2022/06/10 12:40:06;;;;;;;50.30;47.63;;;34.10;44.90;;;;;;4993523;28;20181;-78
2022/06/10 12:42:32;;;;;;;35.15;33.35;;;33.60;44.70;;;;;;4979472;28;20211;-77
2022/06/10 12:45:00;;;;;;;23.95;22.73;;;33.70;47.00;;;;;;4993184;28;20184;-77
2022/06/10 12:47:34;;;;;;;39.95;38.00;;;33.70;45.30;;;;;;4993342;28;20714;-77
2022/06/10 12:50:16;;;;;;;54.22;51.38;;;33.70;45.50;;;;;;4995088;28;20242;-77
2022/06/10 12:53:19;;;;;;;37.72;35.83;;;33.50;45.30;;;;;;4993215;28;20199;-77
2022/06/10 12:55:47;;;;;;;35.83;34.08;;;33.00;44.80;;;;;;4994097;28;20186;-77
2022/06/10 12:58:34;;;;;;;35.45;33.47;;;33.70;45.60;;;;;;4994361;28;20259;-78
2022/06/10 13:01:29;;;;;;;37.03;35.03;;;34.10;45.70;;;;;;4995427;28;20187;-78
2022/06/10 13:03:58;;;;;;;29.45;27.75;;;33.90;43.90;;;;;;4981065;28;20200;-77
2022/06/10 13:06:44;;;;;;;15.63;14.80;;;34.40;44.10;;;;;;4995371;28;20186;-77
2022/06/10 13:09:10;;;;;;;17.27;16.33;;;34.80;41.90;;;;;;4994873;28;20188;-78
2022/06/10 13:11:46;;;;;;;25.70;24.13;;;34.30;44.00;;;;;;4991600;28;20299;-77
2022/06/10 13:14:30;;;;;;;34.67;32.88;;;33.00;44.00;;;;;;4988422;28;20188;-77
2022/06/10 13:16:59;;;;;;;19.70;18.67;;;33.40;44.50;;;;;;4980221;28;20189;-79
2022/06/10 13:19:36;;;;;;;18.92;17.75;;;33.90;42.70;;;;;;4975665;28;20321;-78
2022/06/10 13:22:19;;;;;;;12.95;12.25;;;34.20;41.90;;;;;;4980825;28;20356;-79